Latest Coastal Weather Observations for East Sale

IDV60701

Issued at 2:15 am EDT Wednesday 22 October 2014 (issued every 10 minutes, with the page automatically refreshed every 10 minutes)

About coastal observations | Map of coastal stations | Coastal observations for VIC | Marine services | Other Formats
Station Details ID: 085072 Name: EAST SALE AIRPORT Lat: -38.12 Lon: 147.13 Height: 4.6 m
Data from the previous 72 hours. | See also: Recent months at East Sale
Date/Time
EDT
Temp

°C
Wind Pressure Rain
since 9am
mm
Weather Cloud Vis
km
Sea
Height
m
Swell
Dir
 
Speed
knots
Gust
knots
hPa Trend Height
m
Period
s
Dir
22/02:00am 9.4 NW 3 4 1023.1 - 0.0 - - 10 - - - -
22/01:30am 10.1 WNW 3 4 1023.6 - 0.0 - - 10 - - - -
22/01:00am 9.7 WNW 4 5 1024.2 - 0.0 - - 10 - - - -
22/12:30am 10.0 WNW 5 6 1024.6 - 0.0 - - 10 - - - -
22/12:00am 10.2 WNW 6 7 1024.9 - 0.0 - - 10 - - - -
 
Date/Time
EDT
Temp

°C
Wind Pressure Rain
since 9am
mm
Weather Cloud Vis
km
Sea
Height
m
Swell
Dir
 
Speed
knots
Gust
knots
hPa Trend Height
m
Period
s
Dir
21/11:30pm 10.0 W 3 5 1025.0 - 0.0 - - 10 - - - -
21/11:00pm 11.8 SW 4 4 1025.3 - 0.0 - - 10 - - - -
21/10:30pm 12.2 S 4 5 1025.5 - 0.0 - - 10 - - - -
21/10:00pm 12.5 S 5 6 1025.6 - 0.0 - - 10 - - - -
21/09:30pm 12.8 S 6 7 1025.8 - 0.0 - - 10 - - - -
21/09:00pm 13.2 SSE 6 8 1025.7 - 0.0 - - 10 - - - -
21/08:30pm 13.5 SSE 7 8 1025.8 - 0.0 - - 10 - - - -
21/08:00pm 13.9 SSE 4 5 1025.8 - 0.0 - - 10 - - - -
21/07:30pm 14.8 ESE 7 8 1025.6 - 0.0 - - 10 - - - -
21/07:00pm 15.8 ESE 9 11 1025.6 - 0.0 - - 10 - - - -
21/06:30pm 16.7 ESE 10 13 1025.7 - 0.0 - - 10 - - - -
21/06:00pm 17.6 E 13 15 1025.7 - 0.0 - - 10 - - - -
21/05:30pm 18.1 E 14 16 1025.7 - 0.0 - - 10 - - - -
21/05:00pm 18.4 E 12 15 1025.9 - 0.0 - - 10 - - - -
21/04:30pm 18.6 ESE 12 15 1026.0 - 0.0 - - 10 - - - -
21/04:00pm 18.6 E 12 15 1026.3 - 0.0 - - 10 - - - -
21/03:30pm 19.0 E 13 16 1026.6 - 0.0 - - 10 - - - -
21/03:00pm 18.9 E 13 17 1026.9 F 0.0 Fine Clear 25 - - - -
21/02:30pm 18.4 E 12 16 1027.3 - 0.0 - - 10 - - - -
21/02:00pm 18.7 E 12 16 1027.8 - 0.0 - - 10 - - - -
21/01:30pm 18.2 E 11 16 1028.1 - 0.0 - - 10 - - - -
21/01:00pm 18.4 ESE 10 20 1028.4 - 0.0 - - 10 - - - -
21/12:30pm 17.6 E 12 15 1028.7 - 0.0 - - 10 - - - -
21/12:00pm 16.8 E 11 15 1029.0 - 0.0 - - 10 - - - -
21/11:30am 16.5 E 11 14 1029.5 - 0.0 - - 10 - - - -
21/11:00am 16.2 E 11 14 1029.7 - 0.0 - - 10 - - - -
21/10:30am 16.0 E 10 13 1030.0 - 0.0 - - 10 - - - -
21/10:00am 15.1 E 12 14 1030.1 - 0.0 - - 10 - - - -
21/09:30am 14.7 E 14 19 1030.2 - 0.0 - - 10 - - - -
21/09:00am 13.9 ENE 14 17 1030.1 S 0.0 Haze Clear 25 - - - -
21/08:30am 13.0 ENE 10 14 1030.0 - 0.0 - - 10 - - - -
21/08:00am 11.3 NE 4 6 1030.0 - 0.0 - - 10 - - - -
21/07:30am 10.2 NE 3 4 1029.9 - 0.0 - - 10 - - - -
21/07:00am 7.4 NE 7 9 1029.6 - 0.0 - - 10 - - - -
21/06:30am 6.9 ENE 7 7 1029.5 - 0.0 - - 10 - - - -
21/06:00am 7.0 ENE 8 9 1029.2 - 0.0 - - 10 - - - -
21/05:30am 8.0 ENE 8 9 1029.3 - 0.0 - - 10 - - - -
21/05:00am 7.9 ENE 8 8 1029.3 - 0.0 - - 10 - - - -
21/04:30am 6.9 ENE 7 8 1029.3 - 0.0 - - 10 - - - -
21/04:00am 7.2 ENE 6 7 1029.5 - 0.0 - - 10 - - - -
21/03:30am 7.9 ENE 7 8 1029.8 - 0.0 - - 10 - - - -
21/03:00am 9.1 NE 7 10 1030.0 - 0.0 - - 10 - - - -
21/02:30am 10.9 NE 8 11 1030.2 - 0.0 - - 10 - - - -
21/02:00am 12.8 ENE 15 21 1030.4 - 0.0 - Partly cloudy 10 - - - -
21/01:30am 13.2 E 20 26 1030.6 - 0.0 - Cloudy 10 - - - -
21/01:00am 13.3 E 21 26 1031.0 - 0.0 - Cloudy 10 - - - -
21/12:30am 13.4 E 18 23 1031.4 - 0.0 - Cloudy 10 - - - -
21/12:00am 12.8 E 18 25 1031.6 - 0.0 - Mostly cloudy 10 - - - -
 
Date/Time
EDT
Temp

°C
Wind Pressure Rain
since 9am
mm
Weather Cloud Vis
km
Sea
Height
m
Swell
Dir
 
Speed
knots
Gust
knots
hPa Trend Height
m
Period
s
Dir
20/11:30pm 12.6 E 19 24 1031.9 - 0.0 - Cloudy 10 - - - -
20/11:00pm 12.2 E 18 24 1032.1 - 0.0 - Partly cloudy 10 - - - -
20/10:30pm 12.6 E 16 23 1032.2 - 0.0 - Partly cloudy 10 - - - -
20/10:00pm 12.5 E 18 24 1032.1 - 0.0 - Partly cloudy 10 - - - -
20/09:30pm 12.4 E 20 25 1032.1 - 0.0 - Partly cloudy 10 - - - -
20/09:00pm 12.3 E 20 25 1032.0 - 0.0 - Mostly clear 10 - - - -
20/08:30pm 12.5 E 17 26 1031.6 - 0.0 - Partly cloudy 10 - - - -
20/08:00pm 12.8 E 18 24 1031.5 - 0.0 - Partly cloudy 10 - - - -
20/07:30pm 12.5 E 16 21 1031.5 - 0.0 - Partly cloudy 10 - - - -
20/07:00pm 13.3 E 18 23 1031.2 - 0.0 - Partly cloudy 10 - - - -
20/06:30pm 13.8 E 19 25 1031.1 - 0.0 - Partly cloudy 10 - - - -
20/06:00pm 14.1 E 18 25 1031.1 - 0.0 - Mostly clear 10 - - - -
20/05:30pm 14.7 E 19 25 1030.9 - 0.0 - - 10 - - - -
20/05:00pm 14.4 E 19 25 1030.8 - 0.0 - Partly cloudy 10 - - - -
20/04:30pm 15.0 E 19 25 1030.8 - 0.0 - Mostly clear 10 - - - -
20/04:00pm 16.0 E 21 24 1030.8 - 0.0 - Partly cloudy 10 - - - -
20/03:30pm 16.1 E 20 25 1030.7 - 0.0 - Mostly clear 10 - - - -
20/03:00pm 16.0 E 21 26 1030.7 F 0.0 Fine Mostly clear 25 - - - -
20/02:30pm 16.6 E 21 27 1030.9 - 0.0 - Mostly clear 10 - - - -
20/02:00pm 16.4 E 20 24 1031.1 - 0.0 - Mostly clear 10 - - - -
20/01:30pm 16.3 ESE 17 21 1031.2 - 0.0 - Mostly clear 10 - - - -
20/01:00pm 16.2 E 14 18 1031.3 - 0.0 - Mostly clear 10 - - - -
20/12:30pm 16.2 ESE 13 18 1031.7 - 0.0 - Mostly clear 10 - - - -
20/12:00pm 15.7 E 11 16 1032.1 - 0.0 - Mostly clear 10 - - - -
20/11:30am 14.7 E 11 15 1032.3 - 0.0 - Partly cloudy 10 - - - -
20/11:00am 15.5 ENE 9 19 1032.5 - 0.0 - Mostly clear 10 - - - -
20/10:30am 15.3 E 9 11 1032.5 - 0.0 - Mostly clear 10 - - - -
20/10:00am 14.8 ESE 6 11 1032.5 - 0.0 - Mostly clear 10 - - - -
20/09:30am 14.3 SE 9 13 1032.5 - 0.0 - Mostly clear 10 - - - -
20/09:00am 13.8 SSE 8 10 1032.4 R 0.0 Fine Mostly clear 25 - - - -
20/08:30am 12.8 S 6 8 1032.0 - 0.0 - Mostly clear 10 - - - -
20/08:00am 11.0 S 6 7 1031.6 - 0.0 - Mostly clear 10 - - - -
20/07:30am 10.2 SSW 4 5 1031.3 - 0.0 - Mostly clear 10 - - - -
20/07:00am 8.7 SW 5 6 1031.1 - 0.0 - Mostly clear 10 - - - -
20/06:30am 8.5 SW 4 5 1030.9 - 0.0 - - 10 - - - -
20/06:00am 8.6 SW 5 7 1030.7 - 0.0 - - 10 - - - -
20/05:30am 9.4 SSW 7 9 1030.5 - 0.0 - Partly cloudy 10 - - - -
20/05:00am 9.5 SW 6 7 1030.3 - 0.0 - Partly cloudy 10 - - - -
20/04:30am 10.2 SW 7 11 1030.2 - 0.0 - Cloudy 10 - - - -
20/04:00am 11.1 SW 8 10 1030.1 - 0.0 - Cloudy 10 - - - -
20/03:30am 11.5 SW 7 11 1030.2 - 0.0 - Cloudy 10 - - - -
20/03:00am 11.4 WSW 7 9 1029.9 - 0.0 - Cloudy 10 - - - -
20/02:30am 11.5 SW 5 8 1029.7 - 0.0 - Partly cloudy 10 - - - -
20/02:00am 11.8 SSW 7 11 1029.6 - 0.0 - Cloudy 10 - - - -
20/01:30am 11.5 SW 6 10 1029.4 - 0.0 - Partly cloudy 10 - - - -
20/01:00am 11.8 SW 9 13 1029.3 - 0.0 - Partly cloudy 10 - - - -
20/12:30am 12.3 SSW 14 19 1028.7 - 0.0 - Partly cloudy 10 - - - -
20/12:00am 13.3 SSW 14 21 1028.1 - 0.0 - Cloudy 10 - - - -
 
Date/Time
EDT
Temp

°C
Wind Pressure Rain
since 9am
mm
Weather Cloud Vis
km
Sea
Height
m
Swell
Dir
 
Speed
knots
Gust
knots
hPa Trend Height
m
Period
s
Dir
19/11:30pm 13.3 SSW 11 17 1027.6 - 0.0 - Partly cloudy 10 - - - -
19/11:00pm 14.3 SSW 8 12 1027.3 - 0.0 - Partly cloudy 10 - - - -
19/10:30pm 14.4 SSW 6 9 1026.5 - 0.0 - Partly cloudy 10 - - - -
19/10:00pm 14.5 SW 6 9 1026.1 - 0.0 - Cloudy 10 - - - -
19/09:30pm 14.5 SW 7 9 1025.5 - 0.0 - Partly cloudy 10 - - - -
19/09:00pm 14.7 SW 11 17 1024.5 - 0.0 - Cloudy 10 - - - -
19/08:30pm 15.3 SW 7 9 1023.7 - 0.0 - Cloudy 10 - - - -
19/08:00pm 15.7 SW 8 11 1022.7 - 0.0 - Cloudy 10 - - - -
19/07:30pm 16.2 SW 13 18 1021.8 - 0.0 - Cloudy 10 - - - -
19/07:00pm 16.0 S 12 15 1020.8 - 0.0 - Cloudy 10 - - - -
19/06:30pm 16.6 S 13 20 1019.5 - 0.0 - Cloudy 10 - - - -
19/06:00pm 18.1 SSE 13 19 1018.9 - 0.0 - Mostly cloudy 10 - - - -
19/05:30pm 20.5 SSE 8 12 1018.4 - 0.0 - Partly cloudy 10 - - - -
19/05:23pm 22.2 WNW 10 14 1018.0 - 0.0 - Partly cloudy 10 - - - -
19/05:00pm 27.4 WNW 15 19 1017.5 - 0.0 - - 10 - - - -
19/04:30pm 28.1 NW 15 22 1017.3 - 0.0 - Partly cloudy 10 - - - -
19/04:00pm 24.9 NW 11 13 1017.4 - 0.0 - Cloudy 10 - - - -
19/03:30pm 24.9 NW 12 15 1017.5 - 0.0 - Cloudy 10 - - - -
19/03:00pm 26.4 NW 15 19 1017.5 F 0.0 Fine Cloudy 30 - - - -
19/02:30pm 28.0 WNW 16 21 1017.9 - 0.0 - - 10 - - - -
19/02:00pm 27.5 NW 17 23 1018.3 - 0.0 - - 10 - - - -
19/01:30pm 26.7 NW 13 17 1018.7 - 0.0 - Partly cloudy 10 - - - -
19/01:00pm 26.0 NW 11 14 1019.1 - 0.0 - Partly cloudy 10 - - - -
19/12:30pm 24.8 NW 10 14 1019.2 - 0.0 - Partly cloudy 10 - - - -
19/12:00pm 25.2 NW 11 14 1019.6 - 0.0 - Mostly cloudy 10 - - - -
19/11:30am 24.9 NW 15 21 1020.2 - 0.0 - Partly cloudy 10 - - - -
19/11:25am 24.8 NW 16 19 1020.2 - 0.0 - Partly cloudy 10 - - - -
19/11:00am 23.5 NW 6 7 1020.5 - 0.0 - - 10 - - - -
19/10:30am 23.3 N 6 8 1020.6 - 0.0 - - 10 - - - -
19/10:00am 23.4 N 7 9 1020.7 - 0.0 - - 10 - - - -
19/09:30am 20.3 WNW 5 6 1021.1 - 0.0 - Partly cloudy 10 - - - -
19/09:00am 17.5 NW 5 6 1021.2 R 0.0 Fine Mostly cloudy 30 - - - -
19/08:30am 15.4 WNW 5 5 1021.1 - 0.0 - Cloudy 10 - - - -
19/08:00am 14.6 NW 5 6 1020.7 - 0.0 - Cloudy 10 - - - -
19/07:30am 12.6 NNW 5 6 1020.4 - 0.0 - Cloudy 10 - - - -
19/07:00am 11.9 N 4 5 1020.3 - 0.0 - Cloudy 10 - - - -
19/06:30am 11.8 NNW 4 5 1020.2 - 0.0 - Cloudy 10 - - - -
19/06:00am 11.8 SW 3 4 1020.1 - 0.0 - Cloudy 10 - - - -
19/05:30am 12.1 S 3 5 1020.1 - 0.0 - Cloudy 10 - - - -
19/05:00am 11.9 SSW 2 4 1020.1 - 0.0 - Cloudy 10 - - - -
19/04:30am 11.4 NNW 5 5 1020.1 - 0.0 - Cloudy 10 - - - -
19/04:00am 11.4 N 3 6 1020.4 - 0.0 - Cloudy 10 - - - -
19/03:30am 11.2 NW 2 3 1020.9 - 0.0 - Cloudy 10 - - - -
19/03:00am 10.7 N 6 8 1021.1 - 0.0 - Cloudy 10 - - - -
19/02:30am 9.0 CALM 0 0 1021.8 - 0.0 - Cloudy 10 - - - -

Other Formats:

Comma delimited format used in spreadsheet applications
http://www.bom.gov.au/fwo/IDV60701/IDV60701.94907.axf

JavaScript Object Notation format (JSON) in row-major order
http://www.bom.gov.au/fwo/IDV60701/IDV60701.94907.json